メキシコ・シティ国際空港の過去48時間の天気

メキシコ・シティ国際空港 (Mexico City / Licenci)

現在時刻: 9/28 03:19 CDT (9/28 08:19 UTC) 以下の時間は現地時間です。

過去48時間のMETAR気象情報
時間 風向 風速(m/s) 視程 気温(℃) 湿度(%) 気圧(hPa) 天気現象
28 02:45 北東 3 10km以上 15 88 1024
28 01:45 静穏 0 10km以上 16 82 1025
28 00:45 2 10km以上 16 82 1007.2
27 23:46 2 10km以上 17 83 1025
27 22:46 南南東 2 10km以上 17 83 1026
27 21:45 南南西 2 10km以上 16 82 1009.1
27 20:57 南南西 4 10km以上 16 88 1024
27 20:33 南南東 3 10km以上 16 88 1024 弱い雨
27 20:01 3 10km以上 18 73 1023 弱い雨
27 19:46 南南東 5 10km以上 18 68 1023
27 19:22 東南東 5 10km以上 18 68 1023 周辺で雨
27 18:46 南南東 5 10km以上 20 64 1005.8 周辺で雨
27 18:17 東南東 5 10km以上 21 64 1022 周辺で 雷雨
27 17:45 南東 5 10km以上 20 64 1021 弱い雨
27 17:20 南東 6 10km以上 21 53 1021 弱い雨
27 17:09 東南東 5 10km以上 23 47 1021 周辺で雨
27 16:45 北北東 4 10km以上 25 34 1020 周辺で雨
27 15:45 北北東 4 10km以上 26 30 1002.3 周辺で雨
27 14:45 北西 4 10km以上 25 30 1022
MMMX 280745Z 05005KT 8SM SCT090 BKN200 15/13 A3023 NOSIG RMK 8/038 HZY
MMMX 280645Z 00000KT 10SM SCT090 OVC200 16/13 A3026 NOSIG RMK 8/077 HZY
MMMX 280545Z 08004KT 10SM SCT090 OVC200 16/13 A3028 NOSIG RMK SLP072 52009 961 8/077 HZY ISOL SC
MMMX 280446Z 09004KT 10SM BKN090 OVC200 17/14 A3028 NOSIG RMK 8/072 HZY ISOL SC
MMMX 280346Z 16004KT 10SM FEW020 BKN090 OVC200 17/14 A3029 NOSIG RMK 8/463 HZY OCNL DROPS
MMMX 280245Z 21003KT 8SM SCT020CB BKN090 BKN200 16/13 A3026 NOSIG RMK SLP091 52022 972 60065 8/963 HZY
MMMX 280157Z 20008KT 7SM SCT020CB BKN090 OVC200 16/14 A3024 NOSIG RMK 8/963 HZY BINOVC OCNL DROPS RAE53
MMMX 280133Z 16006KT 7SM -RA BKN020CB BKN090 OVC200 16/14 A3023 NOSIG RMK 8/963 HZY
MMMX 280101Z 18005KT 8SM -RA BKN020CB BKN090 OVC200 18/13 A3021 TEMPO 6SM -TSRA RMK 8/963 HZY BINOVC RAB00
MMMX 280046Z 15010KT 8SM BKN020CB BKN090 OVC200 18/12 A3020 NOSIG RMK 8/963 HZY BINOVC OCNL DROPS
MMMX 280022Z 11010KT 7SM VCRA BKN020CB BKN090 OVC200 18/12 A3020 NOSIG RMK 8/963 HZY OCNL DROPS PCPN NE E
MMMX 272346Z 16010KT 7SM VCRA BKN020CB OVC090 20/13 A3019 TEMPO 6SM TSRA RMK SLP058 52004 975 60015 8/96/ HZY PCPN NE SE
MMMX 272317Z 12010KT 7SM VC TSRA BKN020CB OVC090 21/14 A3017 TEMPO 6SM TSRA RMK 8/96/ HZY RAE13 PCPN SW OCNL DROPS
MMMX 272245Z 13009KT 8SM -RA BKN020CB OVC090 20/13 A3014 TEMPO 5SM TSRA RMK 60025 8/96/ HZY
MMMX 272220Z 13012KT 8SM -RA BKN020CB OVC090 21/11 A3014 TEMPO 5SM TSRA RMK 8/36/ HZY RAB18
MMMX 272209Z 11010KT 9SM VCRA SCT020CB BKN090 BKN200 23/11 A3014 TEMPO 5SM TSRA RMK 8/362 HZY PCPN NE E
MMMX 272145Z 03008KT 9SM VCRA SCT020CB BKN090 BKN200 25/08 A3013 TEMPO 5SM TSRA RMK 8/362 HZY PCPN NE
MMMX 272045Z 02008KT 9SM VCRA SCT020 BKN090 BKN200 26/07 A3016 NOSIG RMK SLP023 57034 981 8/232 HZY CB PCPN SE S
MMMX 271945Z 31007KT 8SM SCT020 SCT090 BKN200 25/06 A3019 NOSIG RMK 8/234 HZY DSNT CB SE